createdAt,value
2022-09-13T00:01:43.461Z,17.10
2022-09-13T00:05:45.490Z,17.30
2022-09-13T00:09:47.178Z,17.40
2022-09-13T00:13:49.502Z,17.40
2022-09-13T00:17:51.154Z,17.30
2022-09-13T00:21:52.796Z,17.30
2022-09-13T00:26:03.925Z,17.60
2022-09-13T00:30:07.752Z,17.50
2022-09-13T00:34:09.393Z,17.50
2022-09-13T00:38:11.056Z,17.50
2022-09-13T00:42:13.839Z,17.60
2022-09-13T00:46:44.160Z,17.60
2022-09-13T00:50:58.146Z,17.30
2022-09-13T00:55:09.474Z,17.40
2022-09-13T00:59:18.365Z,17.50
2022-09-13T01:03:22.572Z,17.40
2022-09-13T01:07:24.462Z,17.10
2022-09-13T01:11:35.713Z,16.90
2022-09-13T01:15:37.727Z,16.80
2022-09-13T01:19:39.536Z,16.30
2022-09-13T01:24:07.405Z,17.00
2022-09-13T01:28:37.853Z,16.60
2022-09-13T01:33:06.853Z,16.50
2022-09-13T01:37:39.389Z,17.10
2022-09-13T01:42:01.568Z,16.80
2022-09-13T01:46:16.721Z,16.80
2022-09-13T01:50:42.532Z,17.10
2022-09-13T01:55:31.358Z,16.90
2022-09-13T01:59:53.840Z,16.70
2022-09-13T02:04:01.617Z,16.60
2022-09-13T02:08:09.889Z,16.50
2022-09-13T02:12:18.482Z,17.00
2022-09-13T02:16:31.188Z,16.70
2022-09-13T02:20:36.958Z,16.20
2022-09-13T02:24:45.222Z,16.70
2022-09-13T02:28:55.568Z,16.90
2022-09-13T02:33:12.499Z,17.00
2022-09-13T02:37:14.533Z,16.60
2022-09-13T02:41:23.518Z,16.50
2022-09-13T02:45:32.285Z,16.40
2022-09-13T02:49:43.450Z,16.20
2022-09-13T02:54:00.877Z,16.10
2022-09-13T02:58:43.794Z,16.40
2022-09-13T03:02:46.920Z,16.20
2022-09-13T03:06:50.277Z,16.10
2022-09-13T03:11:08.187Z,15.90
2022-09-13T03:15:24.408Z,16.00
2022-09-13T03:19:29.097Z,16.20
2022-09-13T03:23:55.211Z,16.60
2022-09-13T03:28:29.045Z,16.40
2022-09-13T03:33:00.614Z,16.40
2022-09-13T03:37:43.872Z,15.70
2022-09-13T03:41:52.308Z,15.40
2022-09-13T03:45:58.885Z,15.50
2022-09-13T03:50:01.790Z,15.90
2022-09-13T03:54:08.843Z,15.80
2022-09-13T03:58:13.686Z,15.90
2022-09-13T04:02:17.568Z,16.00
2022-09-13T04:06:19.386Z,16.10
2022-09-13T04:10:21.864Z,16.00
2022-09-13T04:14:26.394Z,16.20
2022-09-13T04:18:28.780Z,15.80
2022-09-13T04:22:31.446Z,15.90
2022-09-13T04:26:34.870Z,16.00
2022-09-13T04:30:40.702Z,15.70
2022-09-13T04:34:44.724Z,16.00
2022-09-13T04:38:48.170Z,16.00
2022-09-13T04:42:49.861Z,16.30
2022-09-13T04:46:52.227Z,16.10
2022-09-13T04:50:53.862Z,16.20
2022-09-13T04:54:55.791Z,16.10
2022-09-13T04:58:57.522Z,16.20
2022-09-13T05:02:59.340Z,15.30
2022-09-13T05:07:00.948Z,15.10
2022-09-13T05:11:03.642Z,15.60
2022-09-13T05:15:07.012Z,15.30
2022-09-13T05:19:11.454Z,15.50
2022-09-13T05:23:13.101Z,15.80
2022-09-13T05:27:14.793Z,16.10
2022-09-13T05:31:22.858Z,16.40
2022-09-13T05:35:25.136Z,16.20
2022-09-13T05:39:33.847Z,16.20
2022-09-13T05:43:45.677Z,16.40
2022-09-13T05:47:50.917Z,16.30
2022-09-13T05:51:52.600Z,15.70
2022-09-13T05:55:54.239Z,15.40
2022-09-13T05:59:55.890Z,15.50
2022-09-13T06:03:58.848Z,15.80
2022-09-13T06:08:00.549Z,16.00
2022-09-13T06:12:02.633Z,16.60
2022-09-13T06:16:08.241Z,17.10
2022-09-13T06:20:10.690Z,17.10
2022-09-13T06:24:12.329Z,17.40
2022-09-13T06:28:13.973Z,17.50
2022-09-13T06:32:15.634Z,17.30
2022-09-13T06:36:19.911Z,17.50
2022-09-13T06:40:25.204Z,17.70
2022-09-13T06:44:27.101Z,17.10
2022-09-13T06:48:31.507Z,17.10
2022-09-13T06:52:33.325Z,17.00
2022-09-13T06:56:40.335Z,17.10
2022-09-13T07:00:42.057Z,17.20
2022-09-13T07:04:43.841Z,16.80
2022-09-13T07:08:46.867Z,17.30
2022-09-13T07:12:48.538Z,17.30
2022-09-13T07:16:51.799Z,17.60
2022-09-13T07:20:58.186Z,18.10
2022-09-13T07:25:00.969Z,18.50
2022-09-13T07:29:06.679Z,19.10
2022-09-13T07:33:08.505Z,18.20
2022-09-13T07:37:10.227Z,18.90
2022-09-13T07:41:14.530Z,19.50
2022-09-13T07:45:16.320Z,19.90
2022-09-13T07:49:19.378Z,20.10
2022-09-13T07:53:20.993Z,20.20
2022-09-13T07:57:22.694Z,20.10
2022-09-13T08:01:26.438Z,19.50
2022-09-13T08:05:28.266Z,20.00
2022-09-13T08:09:29.967Z,20.40
2022-09-13T08:13:34.827Z,20.40
2022-09-13T08:17:36.510Z,20.60
2022-09-13T08:21:40.496Z,20.20
2022-09-13T08:25:42.318Z,20.50
2022-09-13T08:29:44.144Z,20.80
2022-09-13T08:33:48.371Z,21.00
2022-09-13T08:37:50.150Z,21.20
2022-09-13T08:42:21.381Z,21.40
2022-09-13T08:46:35.617Z,21.20
2022-09-13T08:50:39.318Z,21.50
2022-09-13T08:54:41.134Z,21.70
2022-09-13T08:59:03.920Z,21.50
2022-09-13T09:03:14.558Z,21.90
2022-09-13T09:07:22.682Z,22.00
2022-09-13T09:11:54.225Z,22.20
2022-09-13T09:16:01.394Z,22.50
2022-09-13T09:20:27.615Z,22.70
2022-09-13T09:24:36.334Z,22.90
2022-09-13T09:28:37.993Z,23.10
2022-09-13T09:32:58.445Z,23.00
2022-09-13T09:37:19.894Z,23.30
2022-09-13T09:41:32.584Z,23.60
2022-09-13T09:45:36.394Z,23.70
2022-09-13T09:50:14.472Z,24.00
2022-09-13T09:54:16.782Z,24.10
2022-09-13T09:58:35.958Z,24.50
2022-09-13T10:02:44.539Z,24.50
2022-09-13T10:06:47.069Z,24.70
2022-09-13T10:10:57.692Z,24.70
2022-09-13T10:15:32.718Z,25.10
2022-09-13T10:19:34.385Z,25.40
2022-09-13T10:23:38.886Z,25.60
2022-09-13T10:27:47.785Z,26.00
2022-09-13T10:31:53.657Z,26.30
2022-09-13T10:36:00.432Z,26.20
2022-09-13T10:40:22.580Z,26.40
2022-09-13T10:44:33.942Z,26.30
2022-09-13T10:48:47.639Z,25.90
2022-09-13T10:52:52.914Z,25.80
2022-09-13T10:56:54.745Z,25.80
2022-09-13T11:01:18.584Z,25.70
2022-09-13T11:05:41.848Z,25.90
2022-09-13T11:09:49.614Z,26.10
2022-09-13T11:14:23.048Z,26.10
2022-09-13T11:18:57.242Z,25.80
2022-09-13T11:23:13.372Z,25.80
2022-09-13T11:27:44.943Z,25.40
2022-09-13T11:32:14.342Z,25.40
2022-09-13T11:36:35.972Z,26.10
2022-09-13T11:41:03.836Z,26.50
2022-09-13T11:45:28.680Z,26.70
2022-09-13T11:49:58.877Z,26.60
2022-09-13T11:54:14.817Z,26.40
2022-09-13T11:58:28.786Z,26.30
2022-09-13T12:02:40.362Z,26.10
2022-09-13T12:06:50.834Z,26.40
2022-09-13T12:10:58.162Z,26.00
2022-09-13T12:15:08.411Z,26.50
2022-09-13T12:19:25.164Z,27.00
2022-09-13T12:23:46.353Z,27.20
2022-09-13T12:27:59.413Z,26.90
2022-09-13T12:32:05.197Z,26.80
2022-09-13T12:36:36.629Z,27.00
2022-09-13T12:40:42.785Z,27.70
2022-09-13T12:45:26.532Z,27.60
2022-09-13T12:49:46.577Z,27.60
2022-09-13T12:54:00.368Z,27.80
2022-09-13T12:58:34.425Z,27.20
2022-09-13T13:02:44.647Z,27.10
2022-09-13T13:07:02.945Z,27.20
2022-09-13T13:11:14.693Z,27.10
2022-09-13T13:15:18.165Z,27.50
2022-09-13T13:19:31.201Z,27.60
2022-09-13T13:23:39.288Z,28.10
2022-09-13T13:27:48.041Z,28.30
2022-09-13T13:32:07.333Z,27.90
2022-09-13T13:36:22.224Z,28.30
2022-09-13T13:40:26.609Z,28.60
2022-09-13T13:44:28.293Z,28.80
2022-09-13T13:48:41.531Z,28.30
2022-09-13T13:52:55.905Z,28.50
2022-09-13T13:56:57.849Z,28.50
2022-09-13T14:01:02.442Z,28.80
2022-09-13T14:05:32.453Z,28.80
2022-09-13T14:09:53.717Z,28.60
2022-09-13T14:14:32.649Z,28.40
2022-09-13T14:19:07.137Z,28.50
2022-09-13T14:23:27.217Z,28.60
2022-09-13T14:27:37.505Z,28.50
2022-09-13T14:31:39.467Z,28.80
2022-09-13T14:35:41.679Z,28.60
2022-09-13T14:40:00.399Z,28.80
2022-09-13T14:44:28.180Z,28.60
2022-09-13T14:48:42.262Z,28.60
2022-09-13T14:53:18.001Z,28.70
2022-09-13T14:57:34.363Z,28.70
2022-09-13T15:01:36.338Z,28.60
2022-09-13T15:05:39.330Z,28.50
2022-09-13T15:09:41.095Z,28.50
2022-09-13T15:13:43.781Z,28.50
2022-09-13T15:17:53.954Z,28.50
2022-09-13T15:22:26.438Z,28.50
2022-09-13T15:26:28.178Z,28.50
2022-09-13T15:30:32.245Z,28.50
2022-09-13T15:34:34.116Z,28.60
2022-09-13T15:38:36.250Z,28.60
2022-09-13T15:42:39.370Z,28.60
2022-09-13T15:46:48.699Z,28.50
2022-09-13T15:51:05.673Z,28.50
2022-09-13T15:55:11.913Z,28.40
2022-09-13T15:59:14.905Z,28.40
2022-09-13T16:03:17.857Z,28.30
2022-09-13T16:07:20.157Z,28.20
2022-09-13T16:11:21.831Z,28.10
2022-09-13T16:15:23.679Z,27.50
2022-09-13T16:19:25.575Z,27.40
2022-09-13T16:23:27.233Z,27.10
2022-09-13T16:27:33.702Z,27.00
2022-09-13T16:31:36.002Z,27.30
2022-09-13T16:35:37.921Z,27.30
2022-09-13T16:39:39.606Z,27.30
2022-09-13T16:43:41.353Z,27.20
2022-09-13T16:47:44.349Z,27.20
2022-09-13T16:51:46.082Z,27.10
2022-09-13T16:55:47.881Z,27.00
2022-09-13T16:59:49.765Z,26.90
2022-09-13T17:03:54.820Z,26.60
2022-09-13T17:07:56.781Z,26.10
2022-09-13T17:11:58.618Z,26.30
2022-09-13T17:16:00.578Z,26.40
2022-09-13T17:20:07.766Z,26.40
2022-09-13T17:24:13.352Z,26.40
2022-09-13T17:28:16.958Z,26.00
2022-09-13T17:32:18.622Z,25.80
2022-09-13T17:36:21.109Z,25.10
2022-09-13T17:40:22.863Z,25.20
2022-09-13T17:44:24.946Z,25.50
2022-09-13T17:48:26.649Z,25.60
2022-09-13T17:52:31.466Z,25.60
2022-09-13T17:56:39.016Z,25.60
2022-09-13T18:00:40.768Z,25.60
2022-09-13T18:04:42.400Z,25.50
2022-09-13T18:08:44.074Z,25.40
2022-09-13T18:12:45.724Z,25.40
2022-09-13T18:16:49.326Z,25.30
2022-09-13T18:20:51.093Z,24.70
2022-09-13T18:24:52.765Z,24.50
2022-09-13T18:28:56.705Z,24.60
2022-09-13T18:32:58.413Z,24.60
2022-09-13T18:37:00.098Z,23.80
2022-09-13T18:41:11.470Z,23.60
2022-09-13T18:45:13.175Z,23.60
2022-09-13T18:49:15.224Z,24.00
2022-09-13T18:53:16.980Z,24.30
2022-09-13T18:57:18.881Z,24.30
2022-09-13T19:01:26.603Z,24.30
2022-09-13T19:05:28.637Z,24.40
2022-09-13T19:09:30.315Z,23.70
2022-09-13T19:13:34.010Z,23.40
2022-09-13T19:17:35.672Z,23.10
2022-09-13T19:21:37.379Z,22.90
2022-09-13T19:25:39.037Z,23.00
2022-09-13T19:29:40.666Z,23.40
2022-09-13T19:33:44.198Z,23.30
2022-09-13T19:37:45.890Z,23.30
2022-09-13T19:41:47.586Z,22.80
2022-09-13T19:46:02.577Z,22.70
2022-09-13T19:50:04.734Z,22.50
2022-09-13T19:54:07.779Z,21.80
2022-09-13T19:58:09.538Z,22.20
2022-09-13T20:02:11.330Z,22.70
2022-09-13T20:06:14.010Z,23.10
2022-09-13T20:10:15.735Z,23.00
2022-09-13T20:14:19.350Z,22.40
2022-09-13T20:18:22.168Z,22.50
2022-09-13T20:22:23.825Z,22.90
2022-09-13T20:26:26.736Z,22.90
2022-09-13T20:30:28.483Z,22.60
2022-09-13T20:34:30.238Z,22.80
2022-09-13T20:38:32.228Z,22.90
2022-09-13T20:42:34.266Z,22.80
2022-09-13T20:46:36.093Z,23.00
2022-09-13T20:50:39.311Z,23.10
2022-09-13T20:54:41.058Z,23.10
2022-09-13T20:58:44.591Z,22.80
2022-09-13T21:02:46.551Z,22.70
2022-09-13T21:07:09.827Z,22.90
2022-09-13T21:11:17.078Z,22.70
2022-09-13T21:15:19.933Z,22.80
2022-09-13T21:19:21.554Z,22.90
2022-09-13T21:23:23.237Z,22.60
2022-09-13T21:27:25.009Z,22.90
2022-09-13T21:31:32.777Z,23.10
2022-09-13T21:35:40.643Z,22.90
2022-09-13T21:39:43.690Z,23.10
2022-09-13T21:43:45.820Z,23.10
2022-09-13T21:47:49.087Z,22.40
2022-09-13T21:51:52.892Z,21.50
2022-09-13T21:55:54.534Z,21.50
2022-09-13T21:59:56.218Z,22.00
2022-09-13T22:03:59.047Z,21.60
2022-09-13T22:08:00.838Z,21.90
2022-09-13T22:12:02.705Z,21.80
2022-09-13T22:16:05.672Z,22.30
2022-09-13T22:20:07.837Z,22.10
2022-09-13T22:24:14.642Z,22.20
2022-09-13T22:28:16.315Z,22.70
2022-09-13T22:32:22.559Z,22.80
2022-09-13T22:36:25.521Z,23.00
2022-09-13T22:40:27.602Z,22.90
2022-09-13T22:44:29.302Z,22.60
2022-09-13T22:48:31.258Z,22.90
2022-09-13T22:52:32.919Z,22.80
2022-09-13T22:56:35.964Z,22.70
2022-09-13T23:00:37.746Z,22.90
2022-09-13T23:04:39.421Z,22.90
2022-09-13T23:08:42.292Z,22.70
2022-09-13T23:12:45.625Z,22.80
2022-09-13T23:16:50.355Z,22.60
2022-09-13T23:20:59.073Z,22.20
2022-09-13T23:25:00.702Z,22.40
2022-09-13T23:29:04.181Z,22.20
2022-09-13T23:33:08.217Z,22.20
2022-09-13T23:37:09.894Z,22.40
2022-09-13T23:41:11.885Z,22.30
2022-09-13T23:45:13.626Z,22.50
2022-09-13T23:49:15.740Z,22.50
2022-09-13T23:53:17.410Z,22.20
2022-09-13T23:57:20.258Z,21.90
